sensor_id;sensor_type;location;lat;lon;timestamp;pressure;altitude;pressure_sealevel;temperature;humidity
30554;BME280;17335;50.720;7.452;2023-10-09T00:02:11;99906.91;;;13.41;100.00
30554;BME280;17335;50.720;7.452;2023-10-09T00:04:38;99900.84;;;13.39;100.00
30554;BME280;17335;50.720;7.452;2023-10-09T00:07:09;99901.97;;;13.37;100.00
30554;BME280;17335;50.720;7.452;2023-10-09T00:09:37;99892.41;;;13.42;100.00
30554;BME280;17335;50.720;7.452;2023-10-09T00:12:17;99888.28;;;13.48;100.00
30554;BME280;17335;50.720;7.452;2023-10-09T00:14:49;99890.13;;;13.47;100.00
30554;BME280;17335;50.720;7.452;2023-10-09T00:17:17;99882.03;;;13.47;100.00
30554;BME280;17335;50.720;7.452;2023-10-09T00:19:49;99881.75;;;13.50;100.00
30554;BME280;17335;50.720;7.452;2023-10-09T00:22:16;99887.97;;;13.51;100.00
30554;BME280;17335;50.720;7.452;2023-10-09T00:24:58;99887.13;;;13.50;100.00
30554;BME280;17335;50.720;7.452;2023-10-09T00:27:41;99885.28;;;13.51;100.00
30554;BME280;17335;50.720;7.452;2023-10-09T00:30:16;99886.16;;;13.52;100.00
30554;BME280;17335;50.720;7.452;2023-10-09T00:32:45;99881.97;;;13.57;100.00
30554;BME280;17335;50.720;7.452;2023-10-09T00:35:28;99872.50;;;13.53;100.00
30554;BME280;17335;50.720;7.452;2023-10-09T00:38:07;99876.34;;;13.50;100.00
30554;BME280;17335;50.720;7.452;2023-10-09T00:40:47;99877.44;;;13.58;100.00
30554;BME280;17335;50.720;7.452;2023-10-09T00:43:22;99877.97;;;13.61;100.00
30554;BME280;17335;50.720;7.452;2023-10-09T00:45:57;99877.28;;;13.59;100.00
30554;BME280;17335;50.720;7.452;2023-10-09T00:48:38;99871.50;;;13.54;100.00
30554;BME280;17335;50.720;7.452;2023-10-09T00:51:07;99874.97;;;13.46;100.00
30554;BME280;17335;50.720;7.452;2023-10-09T00:53:49;99869.59;;;13.37;100.00
30554;BME280;17335;50.720;7.452;2023-10-09T00:56:21;99873.19;;;13.27;100.00
30554;BME280;17335;50.720;7.452;2023-10-09T00:58:52;99868.50;;;13.20;100.00
30554;BME280;17335;50.720;7.452;2023-10-09T01:01:22;99868.25;;;13.13;100.00
30554;BME280;17335;50.720;7.452;2023-10-09T01:04:01;99860.63;;;13.08;100.00
30554;BME280;17335;50.720;7.452;2023-10-09T01:06:43;99855.53;;;13.05;100.00
30554;BME280;17335;50.720;7.452;2023-10-09T01:09:12;99855.53;;;13.05;100.00
30554;BME280;17335;50.720;7.452;2023-10-09T01:11:41;99851.81;;;13.06;100.00
30554;BME280;17335;50.720;7.452;2023-10-09T01:14:15;99857.22;;;13.06;100.00
30554;BME280;17335;50.720;7.452;2023-10-09T01:16:42;99860.38;;;13.02;100.00
30554;BME280;17335;50.720;7.452;2023-10-09T01:19:10;99844.91;;;13.04;100.00
30554;BME280;17335;50.720;7.452;2023-10-09T01:21:46;99838.34;;;13.06;100.00
30554;BME280;17335;50.720;7.452;2023-10-09T01:24:14;99842.06;;;13.05;100.00
30554;BME280;17335;50.720;7.452;2023-10-09T01:26:43;99840.63;;;13.01;100.00
30554;BME280;17335;50.720;7.452;2023-10-09T01:29:22;99841.25;;;12.95;100.00
30554;BME280;17335;50.720;7.452;2023-10-09T01:34:21;99841.00;;;12.79;100.00
30554;BME280;17335;50.720;7.452;2023-10-09T01:36:52;99842.16;;;12.76;100.00
30554;BME280;17335;50.720;7.452;2023-10-09T01:39:23;99848.28;;;12.68;100.00
30554;BME280;17335;50.720;7.452;2023-10-09T01:41:53;99840.94;;;12.61;100.00
30554;BME280;17335;50.720;7.452;2023-10-09T01:44:26;99830.72;;;12.54;100.00
30554;BME280;17335;50.720;7.452;2023-10-09T01:46:53;99835.28;;;12.54;100.00
30554;BME280;17335;50.720;7.452;2023-10-09T01:49:23;99836.56;;;12.50;100.00
30554;BME280;17335;50.720;7.452;2023-10-09T01:51:56;99838.13;;;12.43;100.00
30554;BME280;17335;50.720;7.452;2023-10-09T01:54:27;99843.81;;;12.40;100.00
30554;BME280;17335;50.720;7.452;2023-10-09T01:57:12;99838.44;;;12.40;100.00
30554;BME280;17335;50.720;7.452;2023-10-09T01:59:39;99836.72;;;12.38;100.00
30554;BME280;17335;50.720;7.452;2023-10-09T02:02:16;99827.94;;;12.36;100.00
30554;BME280;17335;50.720;7.452;2023-10-09T02:05:04;99823.13;;;12.40;100.00
30554;BME280;17335;50.720;7.452;2023-10-09T02:07:52;99819.41;;;12.41;100.00
30554;BME280;17335;50.720;7.452;2023-10-09T02:10:20;99810.22;;;12.44;100.00
30554;BME280;17335;50.720;7.452;2023-10-09T02:15:29;99799.31;;;12.35;100.00
30554;BME280;17335;50.720;7.452;2023-10-09T02:21:15;99802.72;;;12.37;100.00
30554;BME280;17335;50.720;7.452;2023-10-09T02:23:40;99808.22;;;12.46;100.00
30554;BME280;17335;50.720;7.452;2023-10-09T02:26:17;99803.53;;;12.48;100.00
30554;BME280;17335;50.720;7.452;2023-10-09T02:29:06;99806.53;;;12.45;100.00
30554;BME280;17335;50.720;7.452;2023-10-09T02:31:35;99813.19;;;12.41;100.00
30554;BME280;17335;50.720;7.452;2023-10-09T02:34:03;99818.03;;;12.37;100.00
30554;BME280;17335;50.720;7.452;2023-10-09T02:36:31;99808.22;;;12.36;100.00
30554;BME280;17335;50.720;7.452;2023-10-09T02:39:01;99811.78;;;12.36;100.00
30554;BME280;17335;50.720;7.452;2023-10-09T02:41:27;99806.56;;;12.35;100.00
30554;BME280;17335;50.720;7.452;2023-10-09T02:44:00;99811.25;;;12.33;100.00
30554;BME280;17335;50.720;7.452;2023-10-09T02:46:37;99809.66;;;12.30;100.00
30554;BME280;17335;50.720;7.452;2023-10-09T02:49:06;99805.28;;;12.29;100.00
30554;BME280;17335;50.720;7.452;2023-10-09T02:51:33;99808.13;;;12.28;100.00
30554;BME280;17335;50.720;7.452;2023-10-09T02:54:03;99809.25;;;12.25;100.00
30554;BME280;17335;50.720;7.452;2023-10-09T02:56:51;99811.66;;;12.18;100.00
30554;BME280;17335;50.720;7.452;2023-10-09T02:59:33;99813.38;;;12.19;100.00
30554;BME280;17335;50.720;7.452;2023-10-09T03:02:00;99808.00;;;12.19;100.00
30554;BME280;17335;50.720;7.452;2023-10-09T03:04:27;99813.53;;;12.18;100.00
30554;BME280;17335;50.720;7.452;2023-10-09T03:06:58;99815.22;;;12.19;100.00
30554;BME280;17335;50.720;7.452;2023-10-09T03:09:25;99803.44;;;12.20;100.00
30554;BME280;17335;50.720;7.452;2023-10-09T03:12:00;99802.75;;;12.18;100.00
30554;BME280;17335;50.720;7.452;2023-10-09T03:14:31;99801.47;;;12.22;100.00
30554;BME280;17335;50.720;7.452;2023-10-09T03:16:58;99798.94;;;12.21;100.00
30554;BME280;17335;50.720;7.452;2023-10-09T03:19:26;99804.00;;;12.24;100.00
30554;BME280;17335;50.720;7.452;2023-10-09T03:21:55;99806.56;;;12.25;100.00
30554;BME280;17335;50.720;7.452;2023-10-09T03:24:25;99805.28;;;12.29;100.00
30554;BME280;17335;50.720;7.452;2023-10-09T03:26:54;99803.31;;;12.31;100.00
30554;BME280;17335;50.720;7.452;2023-10-09T03:29:24;99799.75;;;12.31;100.00
30554;BME280;17335;50.720;7.452;2023-10-09T03:31:50;99789.56;;;12.34;100.00
30554;BME280;17335;50.720;7.452;2023-10-09T03:34:17;99793.78;;;12.37;100.00
30554;BME280;17335;50.720;7.452;2023-10-09T03:36:45;99797.59;;;12.44;100.00
30554;BME280;17335;50.720;7.452;2023-10-09T03:39:17;99794.31;;;12.50;100.00
30554;BME280;17335;50.720;7.452;2023-10-09T03:42:02;99799.56;;;12.52;100.00
30554;BME280;17335;50.720;7.452;2023-10-09T03:44:32;99790.47;;;12.63;100.00
30554;BME280;17335;50.720;7.452;2023-10-09T03:47:00;99789.06;;;12.59;100.00
30554;BME280;17335;50.720;7.452;2023-10-09T03:49:28;99791.75;;;12.59;100.00
30554;BME280;17335;50.720;7.452;2023-10-09T03:51:55;99797.28;;;12.57;100.00
30554;BME280;17335;50.720;7.452;2023-10-09T03:54:22;99789.75;;;12.61;100.00
30554;BME280;17335;50.720;7.452;2023-10-09T03:56:49;99805.09;;;12.60;100.00
30554;BME280;17335;50.720;7.452;2023-10-09T03:59:17;99796.69;;;12.63;100.00
30554;BME280;17335;50.720;7.452;2023-10-09T04:01:47;99800.94;;;12.66;100.00
30554;BME280;17335;50.720;7.452;2023-10-09T04:04:14;99807.59;;;12.71;100.00
30554;BME280;17335;50.720;7.452;2023-10-09T04:06:41;99805.28;;;12.76;100.00
30554;BME280;17335;50.720;7.452;2023-10-09T04:09:11;99806.69;;;12.81;100.00
30554;BME280;17335;50.720;7.452;2023-10-09T04:11:40;99810.69;;;12.76;100.00
30554;BME280;17335;50.720;7.452;2023-10-09T04:14:13;99809.16;;;12.74;100.00
30554;BME280;17335;50.720;7.452;2023-10-09T04:17:00;99812.28;;;12.69;100.00
30554;BME280;17335;50.720;7.452;2023-10-09T04:19:32;99804.47;;;12.76;100.00
30554;BME280;17335;50.720;7.452;2023-10-09T04:22:14;99795.81;;;12.72;100.00
30554;BME280;17335;50.720;7.452;2023-10-09T04:24:53;99792.25;;;12.72;100.00
30554;BME280;17335;50.720;7.452;2023-10-09T04:27:20;99797.81;;;12.70;100.00
30554;BME280;17335;50.720;7.452;2023-10-09T04:29:53;99792.44;;;12.70;100.00
30554;BME280;17335;50.720;7.452;2023-10-09T04:32:20;99794.41;;;12.68;100.00
30554;BME280;17335;50.720;7.452;2023-10-09T04:34:51;99785.34;;;12.69;100.00
30554;BME280;17335;50.720;7.452;2023-10-09T04:37:43;99779.66;;;12.72;100.00
30554;BME280;17335;50.720;7.452;2023-10-09T04:40:14;99779.66;;;12.72;100.00
30554;BME280;17335;50.720;7.452;2023-10-09T04:42:59;99783.59;;;12.78;100.00
30554;BME280;17335;50.720;7.452;2023-10-09T04:45:25;99782.44;;;12.81;100.00
30554;BME280;17335;50.720;7.452;2023-10-09T04:48:10;99779.13;;;12.97;100.00
30554;BME280;17335;50.720;7.452;2023-10-09T04:50:37;99779.66;;;13.00;100.00
30554;BME280;17335;50.720;7.452;2023-10-09T04:53:24;99782.66;;;12.97;100.00
30554;BME280;17335;50.720;7.452;2023-10-09T04:55:50;99779.97;;;12.97;100.00
30554;BME280;17335;50.720;7.452;2023-10-09T04:58:22;99782.25;;;12.92;100.00
30554;BME280;17335;50.720;7.452;2023-10-09T05:00:58;99786.03;;;12.99;100.00
30554;BME280;17335;50.720;7.452;2023-10-09T05:03:25;99796.53;;;13.02;100.00
30554;BME280;17335;50.720;7.452;2023-10-09T05:05:55;99791.97;;;13.03;100.00
30554;BME280;17335;50.720;7.452;2023-10-09T05:08:26;99790.84;;;13.05;100.00
30554;BME280;17335;50.720;7.452;2023-10-09T05:11:03;99792.22;;;13.09;100.00
30554;BME280;17335;50.720;7.452;2023-10-09T05:18:55;99783.03;;;13.30;100.00
30554;BME280;17335;50.720;7.452;2023-10-09T05:21:34;99790.44;;;13.28;100.00
30554;BME280;17335;50.720;7.452;2023-10-09T05:24:11;99783.03;;;13.30;100.00
30554;BME280;17335;50.720;7.452;2023-10-09T05:26:49;99782.06;;;13.31;100.00
30554;BME280;17335;50.720;7.452;2023-10-09T05:29:20;99774.88;;;13.49;100.00
30554;BME280;17335;50.720;7.452;2023-10-09T05:32:05;99781.72;;;13.62;100.00
30554;BME280;17335;50.720;7.452;2023-10-09T05:34:43;99791.66;;;13.61;100.00
30554;BME280;17335;50.720;7.452;2023-10-09T05:37:32;99788.19;;;13.69;100.00
30554;BME280;17335;50.720;7.452;2023-10-09T05:40:03;99795.66;;;13.75;100.00
30554;BME280;17335;50.720;7.452;2023-10-09T05:42:42;99791.38;;;13.82;100.00
30554;BME280;17335;50.720;7.452;2023-10-09T05:45:15;99783.13;;;13.84;100.00
30554;BME280;17335;50.720;7.452;2023-10-09T05:47:49;99782.25;;;13.83;100.00
30554;BME280;17335;50.720;7.452;2023-10-09T05:50:35;99774.63;;;13.79;100.00
30554;BME280;17335;50.720;7.452;2023-10-09T05:53:04;99770.91;;;13.80;100.00
30554;BME280;17335;50.720;7.452;2023-10-09T05:55:31;99775.03;;;13.84;100.00
30554;BME280;17335;50.720;7.452;2023-10-09T05:58:03;99769.25;;;13.79;100.00
30554;BME280;17335;50.720;7.452;2023-10-09T06:00:35;99767.38;;;13.79;100.00
30554;BME280;17335;50.720;7.452;2023-10-09T06:03:20;99766.75;;;13.85;100.00
30554;BME280;17335;50.720;7.452;2023-10-09T06:05:50;99764.91;;;13.86;100.00
30554;BME280;17335;50.720;7.452;2023-10-09T06:08:18;99776.84;;;13.83;100.00
30554;BME280;17335;50.720;7.452;2023-10-09T06:10:51;99791.22;;;13.84;100.00
30554;BME280;17335;50.720;7.452;2023-10-09T06:13:32;99782.78;;;13.87;100.00
30554;BME280;17335;50.720;7.452;2023-10-09T06:16:12;99784.34;;;13.90;100.00
30554;BME280;17335;50.720;7.452;2023-10-09T06:18:57;99775.22;;;13.91;100.00
30554;BME280;17335;50.720;7.452;2023-10-09T06:21:50;99779.78;;;13.90;100.00
30554;BME280;17335;50.720;7.452;2023-10-09T06:24:20;99770.69;;;13.91;100.00
30554;BME280;17335;50.720;7.452;2023-10-09T06:26:50;99772.53;;;13.91;100.00
30554;BME280;17335;50.720;7.452;2023-10-09T06:29:26;99780.00;;;13.97;100.00
30554;BME280;17335;50.720;7.452;2023-10-09T06:32:03;99781.72;;;13.98;100.00
30554;BME280;17335;50.720;7.452;2023-10-09T06:34:50;99784.25;;;13.99;100.00
30554;BME280;17335;50.720;7.452;2023-10-09T06:37:23;99801.00;;;14.03;100.00
30554;BME280;17335;50.720;7.452;2023-10-09T06:39:56;99797.81;;;14.07;100.00
30554;BME280;17335;50.720;7.452;2023-10-09T06:42:27;99793.97;;;14.10;100.00
30554;BME280;17335;50.720;7.452;2023-10-09T06:45:07;99790.75;;;14.15;100.00
30554;BME280;17335;50.720;7.452;2023-10-09T06:47:41;99794.34;;;14.15;100.00
30554;BME280;17335;50.720;7.452;2023-10-09T06:50:11;99792.00;;;14.20;100.00
30554;BME280;17335;50.720;7.452;2023-10-09T06:52:51;99797.63;;;14.27;100.00
30554;BME280;17335;50.720;7.452;2023-10-09T06:55:24;99798.84;;;14.33;100.00
30554;BME280;17335;50.720;7.452;2023-10-09T06:58:21;99793.66;;;14.39;100.00
30554;BME280;17335;50.720;7.452;2023-10-09T07:00:55;99786.63;;;14.47;100.00
30554;BME280;17335;50.720;7.452;2023-10-09T07:03:26;99791.91;;;14.56;100.00
30554;BME280;17335;50.720;7.452;2023-10-09T07:06:09;99798.94;;;14.67;100.00
30554;BME280;17335;50.720;7.452;2023-10-09T07:08:58;99803.19;;;14.78;100.00
30554;BME280;17335;50.720;7.452;2023-10-09T07:11:34;99801.22;;;14.88;100.00
30554;BME280;17335;50.720;7.452;2023-10-09T07:14:13;99811.63;;;15.01;100.00
30554;BME280;17335;50.720;7.452;2023-10-09T07:19:50;99810.53;;;15.28;100.00
30554;BME280;17335;50.720;7.452;2023-10-09T07:22:17;99817.97;;;15.34;100.00
30554;BME280;17335;50.720;7.452;2023-10-09T07:27:17;99837.44;;;15.38;100.00
30554;BME280;17335;50.720;7.452;2023-10-09T07:29:44;99847.94;;;15.41;100.00
30554;BME280;17335;50.720;7.452;2023-10-09T07:32:17;99844.88;;;15.36;100.00
30554;BME280;17335;50.720;7.452;2023-10-09T07:34:50;99844.84;;;15.28;100.00
30554;BME280;17335;50.720;7.452;2023-10-09T07:37:21;99853.78;;;15.20;100.00
30554;BME280;17335;50.720;7.452;2023-10-09T07:39:52;99842.59;;;15.15;100.00
30554;BME280;17335;50.720;7.452;2023-10-09T07:42:25;99848.00;;;15.15;100.00
30554;BME280;17335;50.720;7.452;2023-10-09T07:45:08;99844.63;;;15.21;100.00
30554;BME280;17335;50.720;7.452;2023-10-09T07:47:47;99845.72;;;15.28;100.00
30554;BME280;17335;50.720;7.452;2023-10-09T07:50:35;99844.03;;;15.35;100.00
30554;BME280;17335;50.720;7.452;2023-10-09T07:53:05;99849.66;;;15.42;100.00
30554;BME280;17335;50.720;7.452;2023-10-09T07:55:50;99854.22;;;15.50;100.00
30554;BME280;17335;50.720;7.452;2023-10-09T07:58:32;99855.59;;;15.62;100.00
30554;BME280;17335;50.720;7.452;2023-10-09T08:01:13;99864.25;;;15.74;100.00
30554;BME280;17335;50.720;7.452;2023-10-09T08:03:49;99861.97;;;15.87;100.00
30554;BME280;17335;50.720;7.452;2023-10-09T08:06:28;99838.13;;;15.99;100.00
30554;BME280;17335;50.720;7.452;2023-10-09T08:09:09;99842.19;;;16.11;100.00
30554;BME280;17335;50.720;7.452;2023-10-09T08:11:48;99840.84;;;16.24;100.00
30554;BME280;17335;50.720;7.452;2023-10-09T08:14:41;99839.13;;;16.39;100.00
30554;BME280;17335;50.720;7.452;2023-10-09T08:17:12;99840.81;;;16.57;100.00
30554;BME280;17335;50.720;7.452;2023-10-09T08:19:49;99855.84;;;16.76;100.00
30554;BME280;17335;50.720;7.452;2023-10-09T08:22:29;99863.16;;;16.92;100.00
30554;BME280;17335;50.720;7.452;2023-10-09T08:24:56;99847.16;;;17.05;100.00
30554;BME280;17335;50.720;7.452;2023-10-09T08:27:23;99842.94;;;17.11;100.00
30554;BME280;17335;50.720;7.452;2023-10-09T08:30:00;99856.94;;;17.22;100.00
30554;BME280;17335;50.720;7.452;2023-10-09T08:32:46;99852.53;;;17.30;100.00
30554;BME280;17335;50.720;7.452;2023-10-09T08:35:54;99845.69;;;17.42;100.00
30554;BME280;17335;50.720;7.452;2023-10-09T08:38:32;99845.34;;;17.45;100.00
30554;BME280;17335;50.720;7.452;2023-10-09T08:41:09;99828.31;;;17.51;100.00
30554;BME280;17335;50.720;7.452;2023-10-09T08:43:51;99833.03;;;17.57;100.00
30554;BME280;17335;50.720;7.452;2023-10-09T08:46:28;99831.78;;;17.68;100.00
30554;BME280;17335;50.720;7.452;2023-10-09T08:48:56;99850.22;;;17.81;100.00
30554;BME280;17335;50.720;7.452;2023-10-09T08:51:27;99850.78;;;17.68;100.00
30554;BME280;17335;50.720;7.452;2023-10-09T08:53:54;99846.19;;;17.69;100.00
30554;BME280;17335;50.720;7.452;2023-10-09T08:56:21;99843.94;;;17.80;100.00
30554;BME280;17335;50.720;7.452;2023-10-09T08:58:59;99843.41;;;17.85;100.00
30554;BME280;17335;50.720;7.452;2023-10-09T09:01:26;99833.84;;;17.97;100.00
30554;BME280;17335;50.720;7.452;2023-10-09T09:03:54;99816.41;;;17.92;100.00
30554;BME280;17335;50.720;7.452;2023-10-09T09:06:24;99810.44;;;17.96;100.00
30554;BME280;17335;50.720;7.452;2023-10-09T09:08:51;99806.97;;;18.03;100.00
30554;BME280;17335;50.720;7.452;2023-10-09T09:11:41;99805.38;;;18.08;100.00
30554;BME280;17335;50.720;7.452;2023-10-09T09:14:14;99802.66;;;18.08;100.00
30554;BME280;17335;50.720;7.452;2023-10-09T09:16:45;99813.06;;;18.05;100.00
30554;BME280;17335;50.720;7.452;2023-10-09T09:19:15;99798.81;;;18.03;100.00
30554;BME280;17335;50.720;7.452;2023-10-09T09:21:56;99823.94;;;18.05;100.00
30554;BME280;17335;50.720;7.452;2023-10-09T09:24:25;99846.84;;;18.10;100.00
30554;BME280;17335;50.720;7.452;2023-10-09T09:26:55;99842.06;;;18.12;100.00
30554;BME280;17335;50.720;7.452;2023-10-09T09:32:05;99847.09;;;18.39;100.00
30554;BME280;17335;50.720;7.452;2023-10-09T09:37:23;99819.31;;;18.66;100.00
30554;BME280;17335;50.720;7.452;2023-10-09T09:39:58;99805.41;;;18.61;100.00
30554;BME280;17335;50.720;7.452;2023-10-09T09:42:30;99772.50;;;18.56;100.00
30554;BME280;17335;50.720;7.452;2023-10-09T09:45:01;99763.63;;;18.62;100.00
30554;BME280;17335;50.720;7.452;2023-10-09T09:47:28;99763.97;;;18.59;100.00
30554;BME280;17335;50.720;7.452;2023-10-09T09:49:57;99765.47;;;18.62;100.00
30554;BME280;17335;50.720;7.452;2023-10-09T09:52:30;99743.81;;;18.68;100.00
30554;BME280;17335;50.720;7.452;2023-10-09T09:55:08;99715.97;;;18.81;100.00
30554;BME280;17335;50.720;7.452;2023-10-09T09:57:44;99717.09;;;19.02;100.00
30554;BME280;17335;50.720;7.452;2023-10-09T10:00:12;99732.06;;;19.13;100.00
30554;BME280;17335;50.720;7.452;2023-10-09T10:03:23;99717.72;;;19.19;100.00
30554;BME280;17335;50.720;7.452;2023-10-09T10:05:51;99708.31;;;19.21;100.00
30554;BME280;17335;50.720;7.452;2023-10-09T10:08:22;99702.28;;;19.26;100.00
30554;BME280;17335;50.720;7.452;2023-10-09T10:10:57;99707.38;;;19.29;100.00
30554;BME280;17335;50.720;7.452;2023-10-09T10:16:10;99705.03;;;19.47;100.00
30554;BME280;17335;50.720;7.452;2023-10-09T10:18:55;99704.19;;;19.47;100.00
30554;BME280;17335;50.720;7.452;2023-10-09T10:21:48;99699.25;;;19.57;100.00
30554;BME280;17335;50.720;7.452;2023-10-09T10:32:53;99690.16;;;20.21;100.00
30554;BME280;17335;50.720;7.452;2023-10-09T10:35:21;99683.16;;;20.40;100.00
30554;BME280;17335;50.720;7.452;2023-10-09T10:37:59;99667.94;;;20.53;100.00
30554;BME280;17335;50.720;7.452;2023-10-09T10:40:34;99663.41;;;20.67;100.00
30554;BME280;17335;50.720;7.452;2023-10-09T10:43:16;99657.97;;;20.67;100.00
30554;BME280;17335;50.720;7.452;2023-10-09T10:46:07;99657.34;;;20.71;100.00
30554;BME280;17335;50.720;7.452;2023-10-09T10:49:01;99654.03;;;20.83;100.00
30554;BME280;17335;50.720;7.452;2023-10-09T10:51:49;99647.31;;;20.85;100.00
30554;BME280;17335;50.720;7.452;2023-10-09T10:54:23;99654.06;;;20.89;100.00
30554;BME280;17335;50.720;7.452;2023-10-09T10:57:19;99647.78;;;21.02;100.00
30554;BME280;17335;50.720;7.452;2023-10-09T10:59:56;99656.63;;;21.04;100.00
30554;BME280;17335;50.720;7.452;2023-10-09T11:02:44;99645.50;;;21.06;100.00
30554;BME280;17335;50.720;7.452;2023-10-09T11:05:10;99648.88;;;21.08;100.00
30554;BME280;17335;50.720;7.452;2023-10-09T11:07:51;99653.09;;;21.17;100.00
30554;BME280;17335;50.720;7.452;2023-10-09T11:10:23;99646.16;;;21.28;100.00
30554;BME280;17335;50.720;7.452;2023-10-09T11:12:54;99666.81;;;21.44;100.00
30554;BME280;17335;50.720;7.452;2023-10-09T11:15:32;99655.06;;;21.50;100.00
30554;BME280;17335;50.720;7.452;2023-10-09T11:18:22;99649.19;;;21.60;100.00
30554;BME280;17335;50.720;7.452;2023-10-09T11:20:57;99654.22;;;21.69;100.00
30554;BME280;17335;50.720;7.452;2023-10-09T11:23:30;99639.53;;;21.70;100.00
30554;BME280;17335;50.720;7.452;2023-10-09T11:26:01;99650.66;;;21.62;100.00
30554;BME280;17335;50.720;7.452;2023-10-09T11:29:05;99650.84;;;21.54;100.00
30554;BME280;17335;50.720;7.452;2023-10-09T11:31:57;99661.78;;;21.54;100.00
30554;BME280;17335;50.720;7.452;2023-10-09T11:34:24;99662.66;;;21.61;100.00
30554;BME280;17335;50.720;7.452;2023-10-09T11:36:59;99653.59;;;21.67;100.00
30554;BME280;17335;50.720;7.452;2023-10-09T11:39:28;99660.56;;;21.70;100.00
30554;BME280;17335;50.720;7.452;2023-10-09T11:42:07;99649.41;;;21.78;100.00
30554;BME280;17335;50.720;7.452;2023-10-09T11:44:41;99644.59;;;21.87;100.00
30554;BME280;17335;50.720;7.452;2023-10-09T11:47:11;99655.47;;;22.00;100.00
30554;BME280;17335;50.720;7.452;2023-10-09T11:50:02;99646.25;;;21.95;100.00
30554;BME280;17335;50.720;7.452;2023-10-09T11:52:31;99645.41;;;22.01;100.00
30554;BME280;17335;50.720;7.452;2023-10-09T11:54:58;99638.66;;;21.97;100.00
30554;BME280;17335;50.720;7.452;2023-10-09T11:57:25;99650.47;;;21.97;100.00
30554;BME280;17335;50.720;7.452;2023-10-09T11:59:58;99643.28;;;21.96;100.00
30554;BME280;17335;50.720;7.452;2023-10-09T12:02:26;99634.47;;;21.94;100.00
30554;BME280;17335;50.720;7.452;2023-10-09T12:04:53;99648.13;;;21.94;100.00
30554;BME280;17335;50.720;7.452;2023-10-09T12:07:25;99645.81;;;22.04;100.00
30554;BME280;17335;50.720;7.452;2023-10-09T12:09:51;99645.63;;;21.99;100.00
30554;BME280;17335;50.720;7.452;2023-10-09T12:12:23;99642.25;;;21.97;100.00
30554;BME280;17335;50.720;7.452;2023-10-09T12:14:53;99642.25;;;21.90;100.00
30554;BME280;17335;50.720;7.452;2023-10-09T12:17:20;99647.28;;;22.00;100.00
30554;BME280;17335;50.720;7.452;2023-10-09T12:19:51;99632.78;;;22.06;100.00
30554;BME280;17335;50.720;7.452;2023-10-09T12:22:17;99647.47;;;22.05;100.00
30554;BME280;17335;50.720;7.452;2023-10-09T12:24:47;99642.00;;;22.19;100.00
30554;BME280;17335;50.720;7.452;2023-10-09T12:27:14;99640.97;;;22.20;100.00
30554;BME280;17335;50.720;7.452;2023-10-09T12:29:40;99636.53;;;22.12;100.00
30554;BME280;17335;50.720;7.452;2023-10-09T12:32:14;99637.16;;;22.14;100.00
30554;BME280;17335;50.720;7.452;2023-10-09T12:34:45;99635.72;;;22.05;100.00
30554;BME280;17335;50.720;7.452;2023-10-09T12:37:12;99639.28;;;22.05;100.00
30554;BME280;17335;50.720;7.452;2023-10-09T12:39:38;99636.53;;;22.05;100.00
30554;BME280;17335;50.720;7.452;2023-10-09T12:42:06;99636.56;;;21.99;100.00
30554;BME280;17335;50.720;7.452;2023-10-09T12:44:35;99640.75;;;22.01;100.00
30554;BME280;17335;50.720;7.452;2023-10-09T12:47:09;99635.91;;;22.03;100.00
30554;BME280;17335;50.720;7.452;2023-10-09T12:49:38;99645.81;;;22.04;100.00
30554;BME280;17335;50.720;7.452;2023-10-09T12:52:08;99642.00;;;22.05;100.00
30554;BME280;17335;50.720;7.452;2023-10-09T12:54:42;99634.22;;;22.09;100.00
30554;BME280;17335;50.720;7.452;2023-10-09T12:57:09;99636.97;;;22.09;100.00
30554;BME280;17335;50.720;7.452;2023-10-09T12:59:40;99640.97;;;21.93;100.00
30554;BME280;17335;50.720;7.452;2023-10-09T13:02:15;99646.44;;;21.80;100.00
30554;BME280;17335;50.720;7.452;2023-10-09T13:04:58;99640.34;;;21.71;100.00
30554;BME280;17335;50.720;7.452;2023-10-09T13:07:26;99642.47;;;21.62;100.00
30554;BME280;17335;50.720;7.452;2023-10-09T13:09:52;99629.44;;;21.58;100.00
30554;BME280;17335;50.720;7.452;2023-10-09T13:12:40;99634.25;;;21.49;100.00
30554;BME280;17335;50.720;7.452;2023-10-09T13:15:10;99640.38;;;21.51;100.00
30554;BME280;17335;50.720;7.452;2023-10-09T13:17:38;99642.44;;;21.49;100.00
30554;BME280;17335;50.720;7.452;2023-10-09T13:20:05;99649.56;;;21.43;100.00
30554;BME280;17335;50.720;7.452;2023-10-09T13:22:42;99645.19;;;21.49;100.00
30554;BME280;17335;50.720;7.452;2023-10-09T13:25:09;99636.97;;;21.49;100.00
30554;BME280;17335;50.720;7.452;2023-10-09T13:27:59;99641.81;;;21.47;100.00
30554;BME280;17335;50.720;7.452;2023-10-09T13:30:29;99634.00;;;21.30;100.00
30554;BME280;17335;50.720;7.452;2023-10-09T13:32:55;99629.19;;;21.39;100.00
30554;BME280;17335;50.720;7.452;2023-10-09T13:35:22;99633.59;;;21.33;100.00
30554;BME280;17335;50.720;7.452;2023-10-09T13:38:04;99639.91;;;21.34;100.00
30554;BME280;17335;50.720;7.452;2023-10-09T13:40:36;99647.66;;;21.24;100.00
30554;BME280;17335;50.720;7.452;2023-10-09T13:43:03;99647.44;;;21.25;100.00
30554;BME280;17335;50.720;7.452;2023-10-09T13:45:32;99660.44;;;21.10;100.00
30554;BME280;17335;50.720;7.452;2023-10-09T13:48:04;99659.38;;;21.04;100.00
30554;BME280;17335;50.720;7.452;2023-10-09T13:50:31;99649.69;;;21.02;100.00
30554;BME280;17335;50.720;7.452;2023-10-09T13:53:01;99649.25;;;20.98;100.00
30554;BME280;17335;50.720;7.452;2023-10-09T13:55:29;99662.53;;;21.08;100.00
30554;BME280;17335;50.720;7.452;2023-10-09T13:58:10;99657.47;;;21.05;100.00
30554;BME280;17335;50.720;7.452;2023-10-09T14:00:40;99659.16;;;20.99;100.00
30554;BME280;17335;50.720;7.452;2023-10-09T14:03:09;99662.06;;;20.97;100.00